Time,TemperatureF,DewpointF,PressureIn,WindDirection,WindDirectionDegrees,WindSpeedMPH,WindSpeedGustMPH,Humidity,HourlyPrecipIn,Conditions,Clouds,dailyrainin,SoftwareType,DateUTC
2013-04-14 00:00:00,55.8,52.3,29.92,South,188,17.0,17.0,88,0.00,,,0.00,Wunderground v.1.15,2013-04-14 04:00:00,
2013-04-14 00:02:00,55.8,52.3,29.93,South,183,17.0,17.0,88,0.00,,,0.00,Wunderground v.1.15,2013-04-14 04:02:00,
2013-04-14 00:09:00,55.7,52.5,29.93,South,183,7.0,17.0,89,0.00,,,0.00,Wunderground v.1.15,2013-04-14 04:09:00,
2013-04-14 00:12:00,55.5,52.0,29.93,SSE,157,5.0,13.0,88,0.00,,,0.00,Wunderground v.1.15,2013-04-14 04:12:00,
2013-04-14 00:17:00,55.2,51.7,29.93,South,178,6.0,13.0,88,0.00,,,0.00,Wunderground v.1.15,2013-04-14 04:17:00,
2013-04-14 00:22:00,55.1,51.6,29.93,South,178,10.0,10.0,88,0.00,,,0.00,Wunderground v.1.15,2013-04-14 04:22:00,
2013-04-14 00:28:00,54.9,51.4,29.93,South,176,7.0,10.0,88,0.00,,,0.00,Wunderground v.1.15,2013-04-14 04:28:00,
2013-04-14 00:33:00,54.8,51.3,29.93,South,181,11.0,11.0,88,0.00,,,0.00,Wunderground v.1.15,2013-04-14 04:33:00,
2013-04-14 00:38:00,55.0,51.8,29.93,South,182,7.0,13.0,89,0.00,,,0.00,Wunderground v.1.15,2013-04-14 04:38:00,
2013-04-14 00:43:00,54.8,51.6,29.94,South,180,8.0,8.0,89,0.00,,,0.00,Wunderground v.1.15,2013-04-14 04:43:00,
2013-04-14 00:49:00,54.8,51.6,29.94,South,186,10.0,12.0,89,0.00,,,0.00,Wunderground v.1.15,2013-04-14 04:49:00,
2013-04-14 00:54:00,54.8,51.6,29.94,South,176,10.0,13.0,89,0.00,,,0.00,Wunderground v.1.15,2013-04-14 04:54:00,
2013-04-14 01:00:00,54.6,51.4,29.94,South,178,9.0,9.0,89,0.00,,,0.00,Wunderground v.1.15,2013-04-14 05:00:00,
2013-04-14 01:05:00,54.5,51.3,29.94,South,179,5.0,9.0,89,0.00,,,0.00,Wunderground v.1.15,2013-04-14 05:05:00,
2013-04-14 01:10:00,54.4,51.2,29.94,South,179,3.0,6.0,89,0.00,,,0.00,Wunderground v.1.15,2013-04-14 05:10:00,
2013-04-14 01:16:00,54.3,51.4,29.94,South,180,6.0,6.0,90,0.00,,,0.00,Wunderground v.1.15,2013-04-14 05:16:00,
2013-04-14 01:22:00,54.3,51.4,29.94,South,180,3.0,7.0,90,0.00,,,0.00,Wunderground v.1.15,2013-04-14 05:22:00,
2013-04-14 01:28:00,54.2,51.3,29.94,South,182,9.0,9.0,90,0.00,,,0.00,Wunderground v.1.15,2013-04-14 05:28:00,
2013-04-14 01:33:00,54.4,51.8,29.94,South,185,6.0,7.0,91,0.00,,,0.00,Wunderground v.1.15,2013-04-14 05:33:00,
2013-04-14 01:39:00,54.7,52.4,29.94,South,187,9.0,9.0,92,0.00,,,0.00,Wunderground v.1.15,2013-04-14 05:39:00,
2013-04-14 01:44:00,54.8,52.5,29.94,South,190,9.0,10.0,92,0.00,,,0.00,Wunderground v.1.15,2013-04-14 05:44:00,
2013-04-14 01:49:00,54.8,52.2,29.94,South,190,6.0,10.0,91,0.00,,,0.00,Wunderground v.1.15,2013-04-14 05:49:00,
2013-04-14 01:54:00,54.9,52.3,29.94,South,190,5.0,8.0,91,0.00,,,0.00,Wunderground v.1.15,2013-04-14 05:54:00,
2013-04-14 02:00:00,54.8,52.2,29.94,South,190,6.0,6.0,91,0.00,,,0.00,Wunderground v.1.15,2013-04-14 06:00:00,
2013-04-14 02:05:00,54.8,51.9,29.94,South,191,5.0,7.0,90,0.00,,,0.00,Wunderground v.1.15,2013-04-14 06:05:00,
2013-04-14 02:10:00,54.8,51.9,29.94,South,191,5.0,5.0,90,0.00,,,0.00,Wunderground v.1.15,2013-04-14 06:10:00,
2013-04-14 02:15:00,54.7,51.8,29.94,South,191,4.0,6.0,90,0.00,,,0.00,Wunderground v.1.15,2013-04-14 06:15:00,
2013-04-14 02:20:00,54.6,51.4,29.95,South,191,4.0,5.0,89,0.00,,,0.00,Wunderground v.1.15,2013-04-14 06:20:00,
2013-04-14 02:25:00,54.6,51.4,29.95,South,191,5.0,5.0,89,0.00,,,0.00,Wunderground v.1.15,2013-04-14 06:25:00,
2013-04-14 02:30:00,54.6,51.4,29.95,South,191,3.0,4.0,89,0.00,,,0.00,Wunderground v.1.15,2013-04-14 06:30:00,
2013-04-14 02:35:00,54.5,51.3,29.95,South,191,4.0,5.0,89,0.00,,,0.00,Wunderground v.1.15,2013-04-14 06:35:00,
2013-04-14 02:40:00,54.5,51.6,29.95,South,191,3.0,4.0,90,0.00,,,0.00,Wunderground v.1.15,2013-04-14 06:40:00,
2013-04-14 02:45:00,54.4,51.8,29.95,South,191,3.0,4.0,91,0.00,,,0.00,Wunderground v.1.15,2013-04-14 06:45:00,
2013-04-14 02:50:00,54.3,51.7,29.95,South,191,3.0,3.0,91,0.00,,,0.00,Wunderground v.1.15,2013-04-14 06:50:00,
2013-04-14 02:55:00,54.2,51.9,29.96,South,191,4.0,4.0,92,0.00,,,0.00,Wunderground v.1.15,2013-04-14 06:55:00,
2013-04-14 03:00:00,54.1,51.8,29.96,South,191,2.0,3.0,92,0.00,,,0.00,Wunderground v.1.15,2013-04-14 07:00:00,
2013-04-14 03:05:00,53.9,51.6,29.96,South,191,0.0,3.0,92,0.00,,,0.00,Wunderground v.1.15,2013-04-14 07:05:00,
2013-04-14 03:10:00,53.7,51.4,29.95,South,191,3.0,3.0,92,0.00,,,0.00,Wunderground v.1.15,2013-04-14 07:10:00,
2013-04-14 03:15:00,53.5,51.2,29.96,South,191,2.0,4.0,92,0.00,,,0.00,Wunderground v.1.15,2013-04-14 07:15:00,
2013-04-14 03:20:00,53.3,51.3,29.95,South,191,1.0,2.0,93,0.00,,,0.00,Wunderground v.1.15,2013-04-14 07:20:00,
2013-04-14 03:25:00,53.1,51.1,29.95,South,191,0.0,2.0,93,0.00,,,0.00,Wunderground v.1.15,2013-04-14 07:25:00,
2013-04-14 03:30:00,52.8,50.8,29.96,South,191,2.0,3.0,93,0.00,,,0.00,Wunderground v.1.15,2013-04-14 07:30:00,
2013-04-14 03:35:00,52.9,51.2,29.96,South,191,3.0,3.0,94,0.00,,,0.00,Wunderground v.1.15,2013-04-14 07:35:00,
2013-04-14 03:40:00,52.9,51.2,29.96,South,191,2.0,3.0,94,0.00,,,0.00,Wunderground v.1.15,2013-04-14 07:40:00,
2013-04-14 03:45:00,52.9,51.2,29.96,South,191,3.0,3.0,94,0.00,,,0.00,Wunderground v.1.15,2013-04-14 07:45:00,
2013-04-14 03:50:00,52.9,51.5,29.96,South,191,3.0,4.0,95,0.00,,,0.00,Wunderground v.1.15,2013-04-14 07:50:00,
2013-04-14 03:59:00,52.9,51.5,29.96,South,191,0.0,5.0,95,0.00,,,0.00,Wunderground v.1.15,2013-04-14 07:59:00,
2013-04-14 04:04:00,52.7,51.3,29.97,South,191,0.0,3.0,95,0.00,,,0.00,Wunderground v.1.15,2013-04-14 08:04:00,
2013-04-14 04:09:00,52.5,51.1,29.97,South,191,0.0,3.0,95,0.00,,,0.00,Wunderground v.1.15,2013-04-14 08:09:00,
2013-04-14 04:14:00,52.4,51.0,29.97,South,191,0.0,2.0,95,0.00,,,0.00,Wunderground v.1.15,2013-04-14 08:14:00,
2013-04-14 04:19:00,52.4,51.0,29.97,South,191,1.0,2.0,95,0.00,,,0.00,Wunderground v.1.15,2013-04-14 08:19:00,
2013-04-14 04:24:00,52.4,51.0,29.96,South,191,0.0,1.0,95,0.00,,,0.00,Wunderground v.1.15,2013-04-14 08:24:00,
2013-04-14 04:29:00,52.4,51.0,29.97,South,191,1.0,1.0,95,0.00,,,0.00,Wunderground v.1.15,2013-04-14 08:29:00,
2013-04-14 04:34:00,52.4,51.3,29.97,South,191,0.0,3.0,96,0.00,,,0.00,Wunderground v.1.15,2013-04-14 08:34:00,
2013-04-14 04:39:00,52.2,51.1,29.97,South,191,0.0,3.0,96,0.00,,,0.00,Wunderground v.1.15,2013-04-14 08:39:00,
2013-04-14 04:44:00,52.0,50.9,29.97,South,191,0.0,1.0,96,0.00,,,0.00,Wunderground v.1.15,2013-04-14 08:44:00,
2013-04-14 04:49:00,51.8,50.7,29.97,South,191,0.0,1.0,96,0.00,,,0.00,Wunderground v.1.15,2013-04-14 08:49:00,
2013-04-14 04:54:00,51.7,50.6,29.97,South,191,2.0,3.0,96,0.00,,,0.00,Wunderground v.1.15,2013-04-14 08:54:00,
2013-04-14 04:59:00,51.7,50.6,29.97,South,191,0.0,3.0,96,0.00,,,0.00,Wunderground v.1.15,2013-04-14 08:59:00,
2013-04-14 05:04:00,51.6,50.5,29.97,South,191,0.0,1.0,96,0.00,,,0.00,Wunderground v.1.15,2013-04-14 09:04:00,
2013-04-14 05:09:00,51.4,50.6,29.97,South,191,0.0,1.0,97,0.00,,,0.00,Wunderground v.1.15,2013-04-14 09:09:00,
2013-04-14 05:14:00,51.2,50.4,29.98,South,191,0.0,1.0,97,0.00,,,0.00,Wunderground v.1.15,2013-04-14 09:14:00,
2013-04-14 05:19:00,51.0,50.2,29.98,South,191,0.0,1.0,97,0.00,,,0.00,Wunderground v.1.15,2013-04-14 09:19:00,
2013-04-14 05:24:00,50.9,50.1,29.98,South,191,0.0,0.0,97,0.00,,,0.00,Wunderground v.1.15,2013-04-14 09:24:00,
2013-04-14 05:29:00,51.0,50.2,29.99,South,191,0.0,2.0,97,0.00,,,0.00,Wunderground v.1.15,2013-04-14 09:29:00,
2013-04-14 05:34:00,51.1,50.3,29.99,South,191,1.0,1.0,97,0.00,,,0.00,Wunderground v.1.15,2013-04-14 09:34:00,
2013-04-14 05:39:00,51.3,50.5,29.99,South,191,1.0,2.0,97,0.00,,,0.00,Wunderground v.1.15,2013-04-14 09:39:00,
2013-04-14 05:44:00,51.4,50.6,29.99,NW,323,4.0,7.0,97,0.00,,,0.00,Wunderground v.1.15,2013-04-14 09:44:00,
2013-04-14 05:49:00,51.7,51.2,29.99,NW,325,1.0,7.0,98,0.00,,,0.00,Wunderground v.1.15,2013-04-14 09:49:00,
2013-04-14 05:54:00,51.8,51.3,30.00,NW,325,1.0,2.0,98,0.00,,,0.00,Wunderground v.1.15,2013-04-14 09:54:00,
2013-04-14 05:59:00,51.9,51.4,30.00,NW,325,6.0,7.0,98,0.00,,,0.00,Wunderground v.1.15,2013-04-14 09:59:00,
2013-04-14 06:04:00,52.2,51.7,30.01,NW,324,6.0,7.0,98,0.00,,,0.00,Wunderground v.1.15,2013-04-14 10:04:00,
2013-04-14 06:09:00,52.3,51.8,30.01,NW,324,6.0,8.0,98,0.00,,,0.00,Wunderground v.1.15,2013-04-14 10:09:00,
2013-04-14 06:14:00,52.3,51.8,30.01,NW,323,5.0,7.0,98,0.00,,,0.00,Wunderground v.1.15,2013-04-14 10:14:00,
2013-04-14 06:19:00,52.2,51.7,30.02,NW,324,6.0,7.0,98,0.00,,,0.00,Wunderground v.1.15,2013-04-14 10:19:00,
2013-04-14 06:24:00,52.1,51.8,30.02,NW,322,6.0,8.0,99,0.00,,,0.00,Wunderground v.1.15,2013-04-14 10:24:00,
2013-04-14 06:29:00,51.9,51.4,30.02,NW,323,3.0,8.0,98,0.00,,,0.00,Wunderground v.1.15,2013-04-14 10:29:00,
2013-04-14 06:34:00,51.5,51.0,30.02,NW,323,0.0,5.0,98,0.00,,,0.00,Wunderground v.1.15,2013-04-14 10:34:00,
2013-04-14 06:39:00,51.4,50.9,30.01,NW,323,1.0,5.0,98,0.00,,,0.00,Wunderground v.1.15,2013-04-14 10:39:00,
2013-04-14 06:44:00,51.3,50.8,30.01,NW,322,1.0,1.0,98,0.00,,,0.00,Wunderground v.1.15,2013-04-14 10:44:00,
2013-04-14 06:49:00,51.2,50.7,30.02,NW,323,0.0,1.0,98,0.00,,,0.00,Wunderground v.1.15,2013-04-14 10:49:00,
2013-04-14 06:54:00,51.1,50.6,30.02,NW,323,0.0,1.0,98,0.00,,,0.00,Wunderground v.1.15,2013-04-14 10:54:00,
2013-04-14 06:59:00,50.9,50.4,30.02,NW,323,0.0,1.0,98,0.00,,,0.00,Wunderground v.1.15,2013-04-14 10:59:00,
2013-04-14 07:04:00,50.8,50.3,30.03,NW,322,0.0,0.0,98,0.00,,,0.00,Wunderground v.1.15,2013-04-14 11:04:00,
2013-04-14 07:10:00,50.8,50.3,30.03,NW,322,0.0,0.0,98,0.00,,,0.00,Wunderground v.1.15,2013-04-14 11:10:00,
2013-04-14 07:15:00,50.8,50.3,30.03,NW,323,1.0,1.0,98,0.00,,,0.00,Wunderground v.1.15,2013-04-14 11:15:00,
2013-04-14 07:20:00,50.9,50.4,30.03,NW,323,0.0,0.0,98,0.00,,,0.00,Wunderground v.1.15,2013-04-14 11:20:00,
2013-04-14 07:25:00,51.0,50.7,30.04,NW,322,0.0,0.0,99,0.00,,,0.00,Wunderground v.1.15,2013-04-14 11:25:00,
2013-04-14 07:30:00,51.2,50.7,30.04,NW,322,0.0,1.0,98,0.00,,,0.00,Wunderground v.1.15,2013-04-14 11:30:00,
2013-04-14 07:35:00,51.3,51.0,30.04,NW,322,0.0,1.0,99,0.00,,,0.00,Wunderground v.1.15,2013-04-14 11:35:00,
2013-04-14 07:40:00,51.6,51.3,30.05,NW,323,2.0,2.0,99,0.00,,,0.00,Wunderground v.1.15,2013-04-14 11:40:00,
2013-04-14 07:45:00,51.9,51.6,30.05,NW,323,0.0,2.0,99,0.00,,,0.00,Wunderground v.1.15,2013-04-14 11:45:00,
2013-04-14 07:50:00,52.2,51.9,30.05,NW,322,2.0,3.0,99,0.00,,,0.00,Wunderground v.1.15,2013-04-14 11:50:00,
2013-04-14 07:55:00,52.3,52.0,30.06,NW,323,3.0,3.0,99,0.00,,,0.00,Wunderground v.1.15,2013-04-14 11:55:00,
2013-04-14 08:00:00,52.5,52.2,30.06,NW,323,3.0,4.0,99,0.00,,,0.00,Wunderground v.1.15,2013-04-14 12:00:00,
2013-04-14 08:05:00,52.4,52.1,30.06,NW,322,4.0,5.0,99,0.00,,,0.00,Wunderground v.1.15,2013-04-14 12:05:00,
2013-04-14 08:10:00,52.2,51.9,30.06,NW,322,3.0,4.0,99,0.00,,,0.00,Wunderground v.1.15,2013-04-14 12:10:00,
2013-04-14 08:15:00,52.1,51.8,30.06,NW,323,4.0,6.0,99,0.00,,,0.00,Wunderground v.1.15,2013-04-14 12:15:00,
2013-04-14 08:20:00,52.1,51.8,30.07,NW,323,6.0,6.0,99,0.00,,,0.00,Wunderground v.1.15,2013-04-14 12:20:00,
2013-04-14 08:25:00,52.2,51.9,30.07,NW,322,7.0,7.0,99,0.00,,,0.00,Wunderground v.1.15,2013-04-14 12:25:00,
2013-04-14 08:30:00,52.2,51.7,30.07,NW,323,9.0,9.0,98,0.00,,,0.00,Wunderground v.1.15,2013-04-14 12:30:00,
2013-04-14 08:35:00,52.1,51.6,30.08,NNW,329,11.0,12.0,98,0.00,,,0.00,Wunderground v.1.15,2013-04-14 12:35:00,
2013-04-14 08:40:00,51.9,51.4,30.08,NNW,327,11.0,12.0,98,0.00,,,0.00,Wunderground v.1.15,2013-04-14 12:40:00,
2013-04-14 08:45:00,51.8,51.3,30.08,NNW,330,9.0,12.0,98,0.00,,,0.00,Wunderground v.1.15,2013-04-14 12:45:00,
2013-04-14 08:50:00,51.7,51.2,30.08,NW,325,10.0,10.0,98,0.00,,,0.00,Wunderground v.1.15,2013-04-14 12:50:00,
2013-04-14 08:55:00,51.5,51.0,30.08,NNW,333,9.0,11.0,98,0.00,,,0.00,Wunderground v.1.15,2013-04-14 12:55:00,
2013-04-14 09:00:00,51.6,50.8,30.08,NNW,330,10.0,10.0,97,0.00,,,0.00,Wunderground v.1.15,2013-04-14 13:00:00,
2013-04-14 09:05:00,51.7,50.9,30.08,NNW,336,5.0,11.0,97,0.00,,,0.00,Wunderground v.1.15,2013-04-14 13:05:00,
2013-04-14 09:10:00,52.0,51.2,30.07,NNW,328,8.0,9.0,97,0.00,,,0.00,Wunderground v.1.15,2013-04-14 13:10:00,
2013-04-14 09:15:00,52.4,51.9,30.08,NNW,335,9.0,11.0,98,0.00,,,0.00,Wunderground v.1.15,2013-04-14 13:15:00,
2013-04-14 09:20:00,52.6,51.8,30.08,NNW,327,3.0,6.0,97,0.00,,,0.00,Wunderground v.1.15,2013-04-14 13:20:00,
2013-04-14 09:25:00,52.7,51.9,30.09,NNW,327,3.0,9.0,97,0.00,,,0.00,Wunderground v.1.15,2013-04-14 13:25:00,
2013-04-14 09:30:00,52.8,52.0,30.09,NW,326,7.0,8.0,97,0.00,,,0.00,Wunderground v.1.15,2013-04-14 13:30:00,
2013-04-14 09:35:00,52.9,51.8,30.09,NNW,327,5.0,10.0,96,0.00,,,0.00,Wunderground v.1.15,2013-04-14 13:35:00,
2013-04-14 09:40:00,53.0,51.9,30.09,NNW,329,3.0,7.0,96,0.00,,,0.00,Wunderground v.1.15,2013-04-14 13:40:00,
2013-04-14 09:45:00,53.3,52.2,30.08,NNW,332,5.0,7.0,96,0.00,,,0.00,Wunderground v.1.15,2013-04-14 13:45:00,
2013-04-14 09:50:00,53.5,52.4,30.08,NNW,330,4.0,9.0,96,0.00,,,0.00,Wunderground v.1.15,2013-04-14 13:50:00,
2013-04-14 09:55:00,53.7,52.6,30.09,NNW,327,9.0,10.0,96,0.00,,,0.00,Wunderground v.1.15,2013-04-14 13:55:00,
2013-04-14 10:00:00,53.6,52.5,30.10,NW,325,11.0,11.0,96,0.00,,,0.00,Wunderground v.1.15,2013-04-14 14:00:00,
2013-04-14 10:05:00,53.6,52.5,30.10,NNW,327,11.0,14.0,96,0.00,,,0.00,Wunderground v.1.15,2013-04-14 14:05:00,
2013-04-14 10:10:00,53.6,52.5,30.10,NNW,332,11.0,12.0,96,0.00,,,0.00,Wunderground v.1.15,2013-04-14 14:10:00,
2013-04-14 10:15:00,53.6,52.5,30.11,NNW,328,12.0,13.0,96,0.00,,,0.00,Wunderground v.1.15,2013-04-14 14:15:00,
2013-04-14 10:20:00,53.5,52.4,30.11,NW,323,6.0,11.0,96,0.00,,,0.00,Wunderground v.1.15,2013-04-14 14:20:00,
2013-04-14 10:25:00,53.7,52.0,30.11,NNW,336,5.0,12.0,94,0.00,,,0.00,Wunderground v.1.15,2013-04-14 14:25:00,
2013-04-14 10:30:00,54.0,51.7,30.11,NNW,345,3.0,7.0,92,0.00,,,0.00,Wunderground v.1.15,2013-04-14 14:30:00,
2013-04-14 10:35:00,54.4,51.5,30.11,NNW,339,4.0,9.0,90,0.00,,,0.00,Wunderground v.1.15,2013-04-14 14:35:00,
2013-04-14 10:41:00,54.7,51.8,30.12,NNW,336,6.0,8.0,90,0.00,,,0.00,Wunderground v.1.15,2013-04-14 14:41:00,
2013-04-14 10:46:00,54.9,51.4,30.12,NNW,334,6.0,8.0,88,0.00,,,0.00,Wunderground v.1.15,2013-04-14 14:46:00,
2013-04-14 10:51:00,55.0,49.6,30.12,NNW,337,2.0,10.0,82,0.00,,,0.00,Wunderground v.1.15,2013-04-14 14:51:00,
2013-04-14 10:56:00,55.2,48.5,30.11,NNW,335,5.0,10.0,78,0.00,,,0.00,Wunderground v.1.15,2013-04-14 14:56:00,
2013-04-14 11:01:00,55.6,48.5,30.11,NNW,346,2.0,5.0,77,0.00,,,0.00,Wunderground v.1.15,2013-04-14 15:01:00,
2013-04-14 11:06:00,56.2,47.7,30.11,NNW,334,8.0,10.0,73,0.00,,,0.00,Wunderground v.1.15,2013-04-14 15:06:00,
2013-04-14 11:11:00,56.4,47.5,30.12,NNW,346,2.0,5.0,72,0.00,,,0.00,Wunderground v.1.15,2013-04-14 15:11:00,
2013-04-14 11:16:00,56.8,47.9,30.12,NNW,340,6.0,9.0,72,0.00,,,0.00,Wunderground v.1.15,2013-04-14 15:16:00,
2013-04-14 11:21:00,57.1,47.8,30.12,NNE,19,4.0,9.0,71,0.00,,,0.00,Wunderground v.1.15,2013-04-14 15:21:00,
2013-04-14 11:26:00,57.5,48.2,30.11,NNW,327,5.0,9.0,71,0.00,,,0.00,Wunderground v.1.15,2013-04-14 15:26:00,
2013-04-14 11:32:00,57.7,47.6,30.11,NE,42,6.0,6.0,69,0.00,,,0.00,Wunderground v.1.15,2013-04-14 15:32:00,
2013-04-14 11:38:00,58.0,47.5,30.12,NE,34,4.0,11.0,68,0.00,,,0.00,Wunderground v.1.15,2013-04-14 15:38:00,
2013-04-14 11:43:00,58.3,47.4,30.12,NNW,330,6.0,8.0,67,0.00,,,0.00,Wunderground v.1.15,2013-04-14 15:43:00,
2013-04-14 11:48:00,58.3,46.6,30.12,NNW,346,3.0,8.0,65,0.00,,,0.00,Wunderground v.1.15,2013-04-14 15:48:00,
2013-04-14 11:53:00,58.5,48.0,30.12,NNW,342,3.0,6.0,68,0.00,,,0.00,Wunderground v.1.15,2013-04-14 15:53:00,
2013-04-14 11:58:00,58.7,47.0,30.11,North,9,3.0,7.0,65,0.00,,,0.00,Wunderground v.1.15,2013-04-14 15:58:00,
2013-04-14 12:03:00,58.9,46.3,30.11,North,350,5.0,7.0,63,0.00,,,0.00,Wunderground v.1.15,2013-04-14 16:03:00,
2013-04-14 12:08:00,59.0,46.8,30.11,NNW,338,6.0,9.0,64,0.00,,,0.00,Wunderground v.1.15,2013-04-14 16:08:00,
2013-04-14 12:13:00,59.0,46.0,30.11,NNW,341,4.0,9.0,62,0.00,,,0.00,Wunderground v.1.15,2013-04-14 16:13:00,
2013-04-14 12:18:00,58.7,46.5,30.11,NNW,331,8.0,10.0,64,0.00,,,0.00,Wunderground v.1.15,2013-04-14 16:18:00,
2013-04-14 12:23:00,58.9,47.6,30.10,NNW,333,6.0,8.0,66,0.00,,,0.00,Wunderground v.1.15,2013-04-14 16:23:00,
2013-04-14 12:28:00,59.0,45.6,30.10,NNW,331,8.0,9.0,61,0.00,,,0.00,Wunderground v.1.15,2013-04-14 16:28:00,
2013-04-14 12:33:00,59.0,46.0,30.10,NNW,329,7.0,11.0,62,0.00,,,0.00,Wunderground v.1.15,2013-04-14 16:33:00,
2013-04-14 12:38:00,59.0,46.0,30.10,NNW,329,6.0,11.0,62,0.00,,,0.00,Wunderground v.1.15,2013-04-14 16:38:00,
2013-04-14 12:43:00,58.9,46.3,30.09,NNW,330,2.0,7.0,63,0.00,,,0.00,Wunderground v.1.15,2013-04-14 16:43:00,
2013-04-14 12:48:00,59.0,46.8,30.09,NNW,330,7.0,8.0,64,0.00,,,0.00,Wunderground v.1.15,2013-04-14 16:48:00,
2013-04-14 12:53:00,59.0,46.4,30.09,NNW,331,4.0,8.0,63,0.00,,,0.00,Wunderground v.1.15,2013-04-14 16:53:00,
2013-04-14 12:58:00,59.0,45.6,30.09,NNW,331,3.0,8.0,61,0.00,,,0.00,Wunderground v.1.15,2013-04-14 16:58:00,
2013-04-14 13:03:00,59.0,45.6,30.09,NNW,330,5.0,6.0,61,0.00,,,0.00,Wunderground v.1.15,2013-04-14 17:03:00,
2013-04-14 13:08:00,59.0,45.6,30.08,NNW,330,4.0,6.0,61,0.00,,,0.00,Wunderground v.1.15,2013-04-14 17:08:00,
2013-04-14 13:13:00,59.0,46.4,30.08,NNW,330,4.0,5.0,63,0.00,,,0.00,Wunderground v.1.15,2013-04-14 17:13:00,
2013-04-14 13:18:00,59.0,45.6,30.08,NNW,330,3.0,5.0,61,0.00,,,0.00,Wunderground v.1.15,2013-04-14 17:18:00,
2013-04-14 13:23:00,59.0,47.2,30.09,NNW,329,6.0,6.0,65,0.00,,,0.00,Wunderground v.1.15,2013-04-14 17:23:00,
2013-04-14 13:28:00,59.0,47.2,30.08,NNW,329,3.0,6.0,65,0.00,,,0.00,Wunderground v.1.15,2013-04-14 17:28:00,
2013-04-14 13:33:00,59.3,48.7,30.08,NNW,329,3.0,4.0,68,0.00,,,0.00,Wunderground v.1.15,2013-04-14 17:33:00,
2013-04-14 13:38:00,59.8,47.2,30.08,SW,218,4.0,8.0,63,0.00,,,0.00,Wunderground v.1.15,2013-04-14 17:38:00,
2013-04-14 13:43:00,60.3,48.5,30.08,South,190,5.0,7.0,65,0.00,,,0.00,Wunderground v.1.15,2013-04-14 17:43:00,
2013-04-14 13:48:00,60.7,48.4,30.08,SSW,193,0.0,7.0,64,0.00,,,0.00,Wunderground v.1.15,2013-04-14 17:48:00,
2013-04-14 13:53:00,61.4,49.5,30.08,South,186,2.0,4.0,65,0.00,,,0.00,Wunderground v.1.15,2013-04-14 17:53:00,
2013-04-14 13:58:00,62.0,49.7,30.08,South,182,6.0,7.0,64,0.00,,,0.00,Wunderground v.1.15,2013-04-14 17:58:00,
2013-04-14 14:03:00,62.0,50.1,30.08,South,184,1.0,7.0,65,0.00,,,0.00,Wunderground v.1.15,2013-04-14 18:03:00,
2013-04-14 14:08:00,62.0,49.3,30.08,South,171,4.0,7.0,63,0.00,,,0.00,Wunderground v.1.15,2013-04-14 18:08:00,
2013-04-14 14:13:00,62.2,49.9,30.08,South,171,2.0,6.0,64,0.00,,,0.00,Wunderground v.1.15,2013-04-14 18:13:00,
2013-04-14 14:18:00,62.3,50.8,30.08,South,171,4.0,6.0,66,0.00,,,0.00,Wunderground v.1.15,2013-04-14 18:18:00,
2013-04-14 14:23:00,62.4,50.5,30.08,South,171,5.0,6.0,65,0.00,,,0.00,Wunderground v.1.15,2013-04-14 18:23:00,
2013-04-14 14:28:00,62.5,50.2,30.08,South,173,3.0,9.0,64,0.00,,,0.00,Wunderground v.1.15,2013-04-14 18:28:00,
2013-04-14 14:33:00,62.4,49.2,30.08,South,172,5.0,10.0,62,0.00,,,0.00,Wunderground v.1.15,2013-04-14 18:33:00,
2013-04-14 14:38:00,62.3,50.0,30.08,South,170,5.0,10.0,64,0.00,,,0.00,Wunderground v.1.15,2013-04-14 18:38:00,
2013-04-14 14:43:00,62.3,49.1,30.08,South,172,5.0,10.0,62,0.00,,,0.00,Wunderground v.1.15,2013-04-14 18:43:00,
2013-04-14 14:48:00,62.5,50.2,30.08,South,173,2.0,10.0,64,0.00,,,0.00,Wunderground v.1.15,2013-04-14 18:48:00,
2013-04-14 14:53:00,62.9,48.3,30.09,South,173,3.0,8.0,59,0.00,,,0.00,Wunderground v.1.15,2013-04-14 18:53:00,
2013-04-14 14:58:00,63.2,51.2,30.08,South,182,7.0,9.0,65,0.00,,,0.00,Wunderground v.1.15,2013-04-14 18:58:00,
2013-04-14 15:04:00,63.4,51.4,30.08,South,182,3.0,5.0,65,0.00,,,0.00,Wunderground v.1.15,2013-04-14 19:04:00,
2013-04-14 15:09:00,63.0,50.2,30.08,SE,146,2.0,5.0,63,0.00,,,0.00,Wunderground v.1.15,2013-04-14 19:09:00,
2013-04-14 15:14:00,63.1,51.6,30.08,SE,146,2.0,3.0,66,0.00,,,0.00,Wunderground v.1.15,2013-04-14 19:14:00,
2013-04-14 15:19:00,63.1,49.9,30.08,SE,146,1.0,4.0,62,0.00,,,0.00,Wunderground v.1.15,2013-04-14 19:19:00,
2013-04-14 15:24:00,63.1,50.7,30.08,SE,146,1.0,4.0,64,0.00,,,0.00,Wunderground v.1.15,2013-04-14 19:24:00,
2013-04-14 15:29:00,63.1,49.9,30.08,SE,135,2.0,5.0,62,0.00,,,0.00,Wunderground v.1.15,2013-04-14 19:29:00,
2013-04-14 15:34:00,62.9,49.7,30.08,SE,134,2.0,5.0,62,0.00,,,0.00,Wunderground v.1.15,2013-04-14 19:34:00,
2013-04-14 15:40:00,63.0,50.2,30.07,South,180,2.0,3.0,63,0.00,,,0.00,Wunderground v.1.15,2013-04-14 19:40:00,
2013-04-14 15:45:00,63.2,49.5,30.07,South,182,4.0,7.0,61,0.00,,,0.00,Wunderground v.1.15,2013-04-14 19:45:00,
2013-04-14 15:50:00,63.2,50.0,30.07,South,186,5.0,5.0,62,0.00,,,0.00,Wunderground v.1.15,2013-04-14 19:50:00,
2013-04-14 15:55:00,63.0,51.0,30.07,SSW,192,2.0,10.0,65,0.00,,,0.00,Wunderground v.1.15,2013-04-14 19:55:00,
2013-04-14 16:00:00,62.6,49.0,30.07,South,183,2.0,5.0,61,0.00,,,0.00,Wunderground v.1.15,2013-04-14 20:00:00,
2013-04-14 16:05:00,62.5,51.8,30.07,South,191,10.0,10.0,68,0.00,,,0.00,Wunderground v.1.15,2013-04-14 20:05:00,
2013-04-14 16:10:00,61.8,51.1,30.07,South,190,8.0,8.0,68,0.00,,,0.00,Wunderground v.1.15,2013-04-14 20:10:00,
2013-04-14 16:15:00,61.4,51.1,30.07,South,190,9.0,11.0,69,0.00,,,0.00,Wunderground v.1.15,2013-04-14 20:15:00,
2013-04-14 16:20:00,61.5,50.0,30.07,South,190,5.0,8.0,66,0.00,,,0.00,Wunderground v.1.15,2013-04-14 20:20:00,
2013-04-14 16:25:00,61.7,48.5,30.07,South,187,1.0,8.0,62,0.00,,,0.00,Wunderground v.1.15,2013-04-14 20:25:00,
2013-04-14 16:30:00,61.9,47.0,30.07,South,187,2.0,2.0,58,0.00,,,0.00,Wunderground v.1.15,2013-04-14 20:30:00,
2013-04-14 16:35:00,62.3,48.2,30.08,South,187,2.0,3.0,60,0.00,,,0.00,Wunderground v.1.15,2013-04-14 20:35:00,
2013-04-14 16:40:00,62.5,48.9,30.08,South,187,0.0,2.0,61,0.00,,,0.00,Wunderground v.1.15,2013-04-14 20:40:00,
2013-04-14 16:45:00,62.6,48.1,30.08,South,187,3.0,6.0,59,0.00,,,0.00,Wunderground v.1.15,2013-04-14 20:45:00,
2013-04-14 16:50:00,62.8,49.1,30.08,South,187,0.0,2.0,61,0.00,,,0.00,Wunderground v.1.15,2013-04-14 20:50:00,
2013-04-14 16:55:00,63.0,48.4,30.08,South,187,0.0,2.0,59,0.00,,,0.00,Wunderground v.1.15,2013-04-14 20:55:00,
2013-04-14 17:00:00,63.1,47.1,30.08,South,187,1.0,2.0,56,0.00,,,0.00,Wunderground v.1.15,2013-04-14 21:00:00,
2013-04-14 17:05:00,63.5,50.2,30.07,South,187,1.0,3.0,62,0.00,,,0.00,Wunderground v.1.15,2013-04-14 21:05:00,
2013-04-14 17:10:00,63.9,48.8,30.07,South,183,0.0,2.0,58,0.00,,,0.00,Wunderground v.1.15,2013-04-14 21:10:00,
2013-04-14 17:15:00,64.1,49.5,30.07,South,178,3.0,3.0,59,0.00,,,0.00,Wunderground v.1.15,2013-04-14 21:15:00,
2013-04-14 17:20:00,64.3,50.1,30.07,South,178,0.0,1.0,60,0.00,,,0.00,Wunderground v.1.15,2013-04-14 21:20:00,
2013-04-14 17:25:00,64.5,49.4,30.08,South,178,0.0,1.0,58,0.00,,,0.00,Wunderground v.1.15,2013-04-14 21:25:00,
2013-04-14 17:30:00,64.4,48.8,30.08,South,178,2.0,3.0,57,0.00,,,0.00,Wunderground v.1.15,2013-04-14 21:30:00,
2013-04-14 17:35:00,64.2,48.6,30.08,South,178,2.0,3.0,57,0.00,,,0.00,Wunderground v.1.15,2013-04-14 21:35:00,
2013-04-14 17:40:00,64.1,49.9,30.08,South,178,0.0,1.0,60,0.00,,,0.00,Wunderground v.1.15,2013-04-14 21:40:00,
2013-04-14 17:45:00,64.0,49.8,30.08,South,178,3.0,4.0,60,0.00,,,0.00,Wunderground v.1.15,2013-04-14 21:45:00,
2013-04-14 17:50:00,63.8,51.0,30.08,South,176,4.0,4.0,63,0.00,,,0.00,Wunderground v.1.15,2013-04-14 21:50:00,
2013-04-14 17:55:00,63.3,50.5,30.08,South,175,3.0,7.0,63,0.00,,,0.00,Wunderground v.1.15,2013-04-14 21:55:00,
2013-04-14 18:00:00,63.0,50.6,30.08,South,176,1.0,3.0,64,0.00,,,0.00,Wunderground v.1.15,2013-04-14 22:00:00,
2013-04-14 18:05:00,62.8,50.4,30.09,South,176,1.0,3.0,64,0.00,,,0.00,Wunderground v.1.15,2013-04-14 22:05:00,
2013-04-14 18:10:00,62.6,51.5,30.09,South,176,2.0,3.0,67,0.00,,,0.00,Wunderground v.1.15,2013-04-14 22:10:00,
2013-04-14 18:15:00,62.4,51.7,30.09,South,176,0.0,3.0,68,0.00,,,0.00,Wunderground v.1.15,2013-04-14 22:15:00,
2013-04-14 18:20:00,62.4,51.7,30.09,South,176,0.0,1.0,68,0.00,,,0.00,Wunderground v.1.15,2013-04-14 22:20:00,
2013-04-14 18:25:00,62.3,51.2,30.09,South,176,1.0,1.0,67,0.00,,,0.00,Wunderground v.1.15,2013-04-14 22:25:00,
2013-04-14 18:30:00,62.3,50.8,30.09,South,176,0.0,0.0,66,0.00,,,0.00,Wunderground v.1.15,2013-04-14 22:30:00,
2013-04-14 18:36:00,62.3,50.8,30.10,South,176,0.0,2.0,66,0.00,,,0.00,Wunderground v.1.15,2013-04-14 22:36:00,
2013-04-14 18:41:00,62.2,50.3,30.09,South,176,0.0,0.0,65,0.00,,,0.00,Wunderground v.1.15,2013-04-14 22:41:00,
2013-04-14 18:46:00,62.3,51.6,30.09,South,175,0.0,0.0,68,0.00,,,0.00,Wunderground v.1.15,2013-04-14 22:46:00,
2013-04-14 18:51:00,62.3,51.6,30.09,South,175,0.0,0.0,68,0.00,,,0.00,Wunderground v.1.15,2013-04-14 22:51:00,
2013-04-14 18:56:00,62.1,50.2,30.10,South,176,0.0,0.0,65,0.00,,,0.00,Wunderground v.1.15,2013-04-14 22:56:00,
2013-04-14 19:01:00,62.0,50.1,30.10,South,176,0.0,0.0,65,0.00,,,0.00,Wunderground v.1.15,2013-04-14 23:01:00,
2013-04-14 19:07:00,61.8,49.9,30.10,South,176,0.0,0.0,65,0.00,,,0.00,Wunderground v.1.15,2013-04-14 23:07:00,
2013-04-14 19:12:00,61.6,50.1,30.10,South,176,0.0,0.0,66,0.00,,,0.00,Wunderground v.1.15,2013-04-14 23:12:00,
2013-04-14 19:18:00,61.4,49.9,30.10,South,176,0.0,0.0,66,0.00,,,0.00,Wunderground v.1.15,2013-04-14 23:18:00,
2013-04-14 19:23:00,61.2,49.3,30.09,South,176,0.0,0.0,65,0.00,,,0.00,Wunderground v.1.15,2013-04-14 23:23:00,
2013-04-14 19:28:00,60.9,49.1,30.10,South,175,0.0,0.0,65,0.00,,,0.00,Wunderground v.1.15,2013-04-14 23:28:00,
2013-04-14 19:33:00,60.6,49.2,30.10,South,176,0.0,0.0,66,0.00,,,0.00,Wunderground v.1.15,2013-04-14 23:33:00,
2013-04-14 19:38:00,60.4,49.8,30.10,South,176,0.0,0.0,68,0.00,,,0.00,Wunderground v.1.15,2013-04-14 23:38:00,
2013-04-14 19:43:00,60.2,50.4,30.10,South,175,0.0,0.0,70,0.00,,,0.00,Wunderground v.1.15,2013-04-14 23:43:00,
2013-04-14 19:48:00,60.0,50.9,30.10,South,176,0.0,0.0,72,0.00,,,0.00,Wunderground v.1.15,2013-04-14 23:48:00,
2013-04-14 19:53:00,59.7,50.7,30.10,South,175,0.0,0.0,72,0.00,,,0.00,Wunderground v.1.15,2013-04-14 23:53:00,
2013-04-14 19:58:00,59.4,50.7,30.10,South,175,0.0,1.0,73,0.00,,,0.00,Wunderground v.1.15,2013-04-14 23:58:00,
2013-04-14 20:03:00,59.0,50.7,30.10,South,176,0.0,1.0,74,0.00,,,0.00,Wunderground v.1.15,2013-04-15 00:03:00,
2013-04-14 20:08:00,59.0,50.7,30.10,South,176,0.0,1.0,74,0.00,,,0.00,Wunderground v.1.15,2013-04-15 00:08:00,
2013-04-14 20:14:00,58.6,50.0,30.10,South,175,0.0,1.0,73,0.00,,,0.00,Wunderground v.1.15,2013-04-15 00:14:00,
2013-04-14 20:19:00,58.3,50.0,30.09,South,176,0.0,1.0,74,0.00,,,0.00,Wunderground v.1.15,2013-04-15 00:19:00,
2013-04-14 20:24:00,58.1,50.2,30.09,South,175,0.0,1.0,75,0.00,,,0.00,Wunderground v.1.15,2013-04-15 00:24:00,
2013-04-14 20:29:00,58.0,50.5,30.09,South,175,0.0,1.0,76,0.00,,,0.00,Wunderground v.1.15,2013-04-15 00:29:00,
2013-04-14 20:34:00,57.9,50.4,30.10,South,176,0.0,0.0,76,0.00,,,0.00,Wunderground v.1.15,2013-04-15 00:34:00,
2013-04-14 20:39:00,57.8,50.6,30.10,South,175,0.0,0.0,77,0.00,,,0.00,Wunderground v.1.15,2013-04-15 00:39:00,
2013-04-14 20:44:00,57.8,51.3,30.10,South,176,0.0,1.0,79,0.00,,,0.00,Wunderground v.1.15,2013-04-15 00:44:00,
2013-04-14 20:49:00,57.8,51.3,30.10,South,176,0.0,1.0,79,0.00,,,0.00,Wunderground v.1.15,2013-04-15 00:49:00,
2013-04-14 20:54:00,57.7,51.2,30.10,South,176,0.0,0.0,79,0.00,,,0.00,Wunderground v.1.15,2013-04-15 00:54:00,
2013-04-14 20:59:00,57.6,50.8,30.10,South,175,0.0,0.0,78,0.00,,,0.00,Wunderground v.1.15,2013-04-15 00:59:00,
2013-04-14 21:04:00,57.6,50.8,30.11,South,176,0.0,1.0,78,0.00,,,0.00,Wunderground v.1.15,2013-04-15 01:04:00,
2013-04-14 21:09:00,57.5,50.7,30.11,South,176,0.0,1.0,78,0.00,,,0.00,Wunderground v.1.15,2013-04-15 01:09:00,
2013-04-14 21:14:00,57.6,51.1,30.11,South,175,0.0,1.0,79,0.00,,,0.00,Wunderground v.1.15,2013-04-15 01:14:00,
2013-04-14 21:19:00,57.6,50.8,30.11,South,176,0.0,1.0,78,0.00,,,0.00,Wunderground v.1.15,2013-04-15 01:19:00,
2013-04-14 21:24:00,57.5,50.3,30.11,South,175,0.0,1.0,77,0.00,,,0.00,Wunderground v.1.15,2013-04-15 01:24:00,
2013-04-14 21:29:00,57.5,50.3,30.11,South,176,0.0,1.0,77,0.00,,,0.00,Wunderground v.1.15,2013-04-15 01:29:00,
2013-04-14 21:34:00,57.6,50.4,30.11,South,176,0.0,1.0,77,0.00,,,0.00,Wunderground v.1.15,2013-04-15 01:34:00,
2013-04-14 21:39:00,57.6,50.8,30.11,South,175,0.0,1.0,78,0.00,,,0.00,Wunderground v.1.15,2013-04-15 01:39:00,
2013-04-14 21:44:00,57.8,51.0,30.11,South,175,0.0,1.0,78,0.00,,,0.00,Wunderground v.1.15,2013-04-15 01:44:00,
2013-04-14 21:49:00,57.9,50.7,30.11,South,176,0.0,2.0,77,0.00,,,0.00,Wunderground v.1.15,2013-04-15 01:49:00,
2013-04-14 21:54:00,58.0,50.5,30.11,South,176,0.0,1.0,76,0.00,,,0.00,Wunderground v.1.15,2013-04-15 01:54:00,
2013-04-14 21:59:00,58.1,50.2,30.11,South,176,3.0,3.0,75,0.00,,,0.00,Wunderground v.1.15,2013-04-15 01:59:00,
2013-04-14 22:04:00,58.4,50.1,30.11,South,175,0.0,3.0,74,0.00,,,0.00,Wunderground v.1.15,2013-04-15 02:04:00,
2013-04-14 22:10:00,58.7,49.7,30.11,ESE,115,5.0,5.0,72,0.00,,,0.00,Wunderground v.1.15,2013-04-15 02:10:00,
2013-04-14 22:15:00,59.0,50.0,30.11,ESE,102,1.0,5.0,72,0.00,,,0.00,Wunderground v.1.15,2013-04-15 02:15:00,
2013-04-14 22:20:00,59.0,50.4,30.11,East,92,0.0,1.0,73,0.00,,,0.00,Wunderground v.1.15,2013-04-15 02:20:00,
2013-04-14 22:25:00,59.0,50.7,30.11,East,92,0.0,3.0,74,0.00,,,0.00,Wunderground v.1.15,2013-04-15 02:25:00,
2013-04-14 22:30:00,59.0,51.4,30.11,East,101,2.0,3.0,76,0.00,,,0.00,Wunderground v.1.15,2013-04-15 02:30:00,
2013-04-14 22:35:00,59.0,52.1,30.11,East,100,1.0,6.0,78,0.00,,,0.00,Wunderground v.1.15,2013-04-15 02:35:00,
2013-04-14 22:40:00,59.0,52.5,30.10,ESE,106,1.0,1.0,79,0.00,,,0.00,Wunderground v.1.15,2013-04-15 02:40:00,
2013-04-14 22:45:00,59.0,52.8,30.10,ESE,114,0.0,4.0,80,0.00,,,0.00,Wunderground v.1.15,2013-04-15 02:45:00,
2013-04-14 22:50:00,59.0,53.2,30.10,SE,140,1.0,3.0,81,0.00,,,0.00,Wunderground v.1.15,2013-04-15 02:50:00,
2013-04-14 22:55:00,59.0,53.5,30.11,SE,140,1.0,3.0,82,0.00,,,0.00,Wunderground v.1.15,2013-04-15 02:55:00,
2013-04-14 23:00:00,59.0,53.8,30.11,SE,138,0.0,1.0,83,0.00,,,0.00,Wunderground v.1.15,2013-04-15 03:00:00,
2013-04-14 23:05:00,58.9,53.4,30.11,SE,141,1.0,4.0,82,0.00,,,0.00,Wunderground v.1.15,2013-04-15 03:05:00,
2013-04-14 23:10:00,58.7,52.5,30.11,SE,142,1.0,3.0,80,0.00,,,0.00,Wunderground v.1.15,2013-04-15 03:10:00,
2013-04-14 23:15:00,58.6,52.8,30.11,SE,142,0.0,3.0,81,0.00,,,0.00,Wunderground v.1.15,2013-04-15 03:15:00,
2013-04-14 23:20:00,58.5,52.7,30.10,SE,143,0.0,1.0,81,0.00,,,0.00,Wunderground v.1.15,2013-04-15 03:20:00,
2013-04-14 23:25:00,58.4,52.6,30.10,SE,143,2.0,2.0,81,0.00,,,0.00,Wunderground v.1.15,2013-04-15 03:25:00,
2013-04-14 23:30:00,58.2,52.4,30.10,SE,144,1.0,3.0,81,0.00,,,0.00,Wunderground v.1.15,2013-04-15 03:30:00,
2013-04-14 23:35:00,58.1,52.6,30.10,SE,136,1.0,3.0,82,0.00,,,0.00,Wunderground v.1.15,2013-04-15 03:35:00,
2013-04-14 23:40:00,58.1,53.0,30.10,SE,136,0.0,1.0,83,0.00,,,0.00,Wunderground v.1.15,2013-04-15 03:40:00,
2013-04-14 23:45:00,58.0,52.9,30.10,SE,136,1.0,3.0,83,0.00,,,0.00,Wunderground v.1.15,2013-04-15 03:45:00,
2013-04-14 23:50:00,57.9,53.1,30.11,SE,136,0.0,3.0,84,0.00,,,0.00,Wunderground v.1.15,2013-04-15 03:50:00,
2013-04-14 23:55:00,57.9,53.1,30.10,SE,136,1.0,3.0,84,0.00,,,0.00,Wunderground v.1.15,2013-04-15 03:55:00,